createdAt,value
2018-06-02T00:01:21.281Z,2.13
2018-06-02T00:03:52.979Z,2.30
2018-06-02T00:06:22.721Z,2.23
2018-06-02T00:08:52.977Z,2.67
2018-06-02T00:11:23.675Z,2.47
2018-06-02T00:13:54.836Z,1.90
2018-06-02T00:16:25.658Z,1.80
2018-06-02T00:18:56.633Z,2.60
2018-06-02T00:21:27.484Z,1.77
2018-06-02T00:23:57.209Z,2.60
2018-06-02T00:26:26.923Z,2.30
2018-06-02T00:28:56.736Z,1.90
2018-06-02T00:31:26.485Z,2.00
2018-06-02T00:33:56.637Z,1.93
2018-06-02T00:36:27.186Z,2.57
2018-06-02T00:38:58.005Z,2.33
2018-06-02T00:41:29.023Z,1.87
2018-06-02T00:43:59.739Z,1.50
2018-06-02T00:46:29.565Z,2.10
2018-06-02T00:48:59.338Z,2.30
2018-06-02T00:51:30.174Z,2.60
2018-06-02T00:53:59.897Z,1.83
2018-06-02T00:56:30.785Z,1.77
2018-06-02T00:59:01.391Z,2.50
2018-06-02T01:01:31.455Z,2.10
2018-06-02T01:04:01.214Z,2.63
2018-06-02T01:06:30.960Z,2.20
2018-06-02T01:09:01.772Z,2.13
2018-06-02T01:11:33.674Z,2.10
2018-06-02T01:14:04.060Z,1.80
2018-06-02T01:16:34.574Z,2.10
2018-06-02T01:19:05.381Z,1.97
2018-06-02T01:21:35.568Z,1.93
2018-06-02T01:24:05.315Z,2.10
2018-06-02T01:26:35.030Z,2.37
2018-06-02T01:29:04.745Z,2.63
2018-06-02T01:31:35.185Z,2.37
2018-06-02T01:34:04.975Z,3.00
2018-06-02T01:36:34.702Z,2.93
2018-06-02T01:39:04.913Z,3.10
2018-06-02T01:41:34.646Z,3.40
2018-06-02T01:44:04.865Z,2.73
2018-06-02T01:46:35.427Z,3.40
2018-06-02T01:49:05.849Z,3.07
2018-06-02T01:51:36.272Z,2.97
2018-06-02T01:54:06.790Z,2.90
2018-06-02T01:56:37.750Z,3.13
2018-06-02T01:59:08.330Z,4.07
2018-06-02T02:01:38.090Z,3.90
2018-06-02T02:04:07.828Z,3.57
2018-06-02T02:06:37.567Z,3.30
2018-06-02T02:09:08.797Z,4.10
2018-06-02T02:11:39.473Z,4.70
2018-06-02T02:14:10.005Z,4.07
2018-06-02T02:16:40.484Z,3.90
2018-06-02T02:19:10.250Z,4.37
2018-06-02T02:21:39.997Z,5.07
2018-06-02T02:24:09.757Z,4.57
2018-06-02T02:26:40.411Z,3.87
2018-06-02T02:29:11.029Z,4.47
2018-06-02T02:31:41.556Z,4.43
2018-06-02T02:34:12.038Z,4.70
2018-06-02T02:36:42.732Z,4.67
2018-06-02T02:39:12.477Z,4.40
2018-06-02T02:41:42.254Z,5.50
2018-06-02T02:44:15.004Z,5.07
2018-06-02T02:46:45.513Z,4.50
2018-06-02T02:49:15.235Z,5.43
2018-06-02T02:51:44.978Z,6.07
2018-06-02T02:54:14.707Z,4.73
2018-06-02T02:56:44.837Z,5.20
2018-06-02T02:59:14.567Z,5.20
2018-06-02T03:01:45.204Z,5.70
2018-06-02T03:04:15.914Z,4.53
2018-06-02T03:06:47.797Z,5.20
2018-06-02T03:09:18.312Z,4.70
2018-06-02T03:11:48.778Z,5.23
2018-06-02T03:14:19.664Z,5.67
2018-06-02T03:16:50.301Z,5.97
2018-06-02T03:19:20.886Z,6.53
2018-06-02T03:21:51.375Z,5.90
2018-06-02T03:24:21.515Z,5.87
2018-06-02T03:26:51.273Z,5.80
2018-06-02T03:29:21.974Z,5.90
2018-06-02T03:31:52.621Z,5.80
2018-06-02T03:34:22.382Z,5.77
2018-06-02T03:36:52.132Z,5.40
2018-06-02T03:39:22.882Z,5.97
2018-06-02T03:41:52.647Z,5.70
2018-06-02T03:44:22.500Z,5.23
2018-06-02T03:46:52.235Z,5.80
2018-06-02T03:49:21.969Z,5.90
2018-06-02T03:51:51.836Z,6.60
2018-06-02T03:54:22.759Z,5.13
2018-06-02T03:56:54.230Z,6.57
2018-06-02T03:59:24.000Z,5.67
2018-06-02T04:01:54.348Z,5.90
2018-06-02T04:04:25.834Z,5.40
2018-06-02T04:06:55.585Z,5.20
2018-06-02T04:09:25.356Z,5.80
2018-06-02T04:11:55.073Z,5.10
2018-06-02T04:14:24.781Z,6.30
2018-06-02T04:16:54.525Z,5.77
2018-06-02T04:19:24.266Z,5.43
2018-06-02T04:21:54.024Z,4.90
2018-06-02T04:24:24.675Z,4.53
2018-06-02T04:26:54.438Z,5.43
2018-06-02T04:29:24.347Z,5.07
2018-06-02T04:31:54.504Z,6.13
2018-06-02T04:34:25.061Z,4.80
2018-06-02T04:36:54.819Z,5.10
2018-06-02T04:39:25.461Z,4.90
2018-06-02T04:41:55.168Z,5.30
2018-06-02T04:44:25.946Z,5.47
2018-06-02T04:46:55.676Z,5.03
2018-06-02T04:49:26.697Z,5.40
2018-06-02T04:51:56.392Z,4.60
2018-06-02T04:54:26.183Z,4.73
2018-06-02T04:56:55.923Z,4.93
2018-06-02T04:59:25.728Z,5.30
2018-06-02T05:01:56.608Z,4.57
2018-06-02T05:04:26.439Z,4.53
2018-06-02T05:06:56.552Z,4.97
2018-06-02T05:09:26.289Z,4.63
2018-06-02T05:11:56.034Z,4.70
2018-06-02T05:14:26.584Z,4.30
2018-06-02T05:16:56.310Z,4.43
2018-06-02T05:19:26.319Z,4.60
2018-06-02T05:21:57.108Z,4.63
2018-06-02T05:24:27.906Z,4.23
2018-06-02T05:26:57.620Z,4.77
2018-06-02T05:29:28.297Z,4.77
2018-06-02T05:31:58.025Z,4.60
2018-06-02T05:34:28.548Z,4.57
2018-06-02T05:36:59.049Z,4.97
2018-06-02T05:39:28.771Z,4.70
2018-06-02T05:41:58.484Z,5.50
2018-06-02T05:44:28.255Z,4.40
2018-06-02T05:46:58.006Z,4.63
2018-06-02T05:49:29.549Z,4.97
2018-06-02T05:52:00.644Z,4.90
2018-06-02T05:54:30.755Z,4.77
2018-06-02T05:57:00.505Z,4.60
2018-06-02T05:59:31.073Z,4.97
2018-06-02T06:02:01.586Z,5.37
2018-06-02T06:04:32.262Z,4.70
2018-06-02T06:07:01.977Z,5.17
2018-06-02T06:09:31.687Z,4.70
2018-06-02T06:12:02.732Z,4.90
2018-06-02T06:14:32.467Z,5.33
2018-06-02T06:17:02.183Z,4.63
2018-06-02T06:19:31.916Z,5.57
2018-06-02T06:22:02.384Z,4.73
2018-06-02T06:24:32.128Z,4.97
2018-06-02T06:27:01.878Z,5.33
2018-06-02T06:29:33.137Z,5.37
2018-06-02T06:32:02.900Z,5.43
2018-06-02T06:34:33.463Z,5.90
2018-06-02T06:37:06.569Z,6.00
2018-06-02T06:39:37.233Z,5.23
2018-06-02T06:42:07.602Z,5.20
2018-06-02T06:44:38.752Z,5.20
2018-06-02T06:47:08.554Z,4.73
2018-06-02T06:49:39.061Z,4.37
2018-06-02T06:52:08.790Z,4.70
2018-06-02T06:54:39.980Z,4.60
2018-06-02T06:57:09.723Z,5.67
2018-06-02T06:59:40.098Z,4.40
2018-06-02T07:02:09.810Z,5.27
2018-06-02T07:04:39.541Z,4.57
2018-06-02T07:07:09.257Z,4.57
2018-06-02T07:09:38.974Z,4.23
2018-06-02T07:12:09.076Z,4.90
2018-06-02T07:14:38.817Z,4.20
2018-06-02T07:17:08.544Z,4.70
2018-06-02T07:19:38.314Z,4.37
2018-06-02T07:22:08.063Z,4.20
2018-06-02T07:24:38.220Z,4.97
2018-06-02T07:27:07.944Z,5.03
2018-06-02T07:29:38.985Z,4.27
2018-06-02T07:32:09.903Z,4.70
2018-06-02T07:34:39.643Z,4.17
2018-06-02T07:37:09.389Z,4.50
2018-06-02T07:39:39.960Z,5.47
2018-06-02T07:42:12.439Z,5.80
2018-06-02T07:44:42.448Z,5.37
2018-06-02T07:47:12.172Z,5.37
2018-06-02T07:49:41.944Z,5.60
2018-06-02T07:52:12.441Z,5.40
2018-06-02T07:54:42.168Z,6.10
2018-06-02T07:57:11.880Z,4.80
2018-06-02T07:59:42.051Z,5.03
2018-06-02T08:02:11.778Z,4.50
2018-06-02T08:04:41.503Z,4.90
2018-06-02T08:07:11.564Z,5.20
2018-06-02T08:09:43.908Z,5.43
2018-06-02T08:12:14.490Z,5.27
2018-06-02T08:14:44.485Z,5.10
2018-06-02T08:17:15.794Z,4.30
2018-06-02T08:19:45.569Z,4.30
2018-06-02T08:22:15.277Z,5.20
2018-06-02T08:24:45.021Z,5.00
2018-06-02T08:27:14.760Z,4.50
2018-06-02T08:29:46.018Z,4.83
2018-06-02T08:32:16.516Z,4.93
2018-06-02T08:34:46.264Z,5.70
2018-06-02T08:37:15.997Z,4.23
2018-06-02T08:39:45.754Z,4.07
2018-06-02T08:42:16.271Z,5.47
2018-06-02T08:44:46.003Z,4.07
2018-06-02T08:47:17.023Z,4.63
2018-06-02T08:49:46.767Z,4.03
2018-06-02T08:52:17.265Z,4.40
2018-06-02T08:54:47.929Z,4.97
2018-06-02T08:57:18.426Z,3.90
2018-06-02T08:59:48.827Z,4.33
2018-06-02T09:02:18.539Z,4.20
2018-06-02T09:04:48.732Z,4.37
2018-06-02T09:07:20.201Z,4.03
2018-06-02T09:09:49.916Z,4.03
2018-06-02T09:12:19.652Z,4.03
2018-06-02T09:14:49.448Z,3.93
2018-06-02T09:17:20.897Z,4.37
2018-06-02T09:19:50.624Z,3.93
2018-06-02T09:22:20.974Z,4.83
2018-06-02T09:24:51.455Z,4.40
2018-06-02T09:27:21.197Z,4.00
2018-06-02T09:29:50.940Z,4.13
2018-06-02T09:32:20.666Z,3.93
2018-06-02T09:34:50.782Z,4.37
2018-06-02T09:37:21.307Z,4.63
2018-06-02T09:39:51.067Z,4.37
2018-06-02T09:42:21.384Z,5.07
2018-06-02T09:44:51.886Z,3.80
2018-06-02T09:47:21.737Z,5.00
2018-06-02T09:49:52.316Z,4.03
2018-06-02T09:52:22.630Z,4.47
2018-06-02T09:54:52.368Z,4.20
2018-06-02T09:57:22.110Z,3.53
2018-06-02T09:59:51.827Z,4.30
2018-06-02T10:02:23.173Z,4.80
2018-06-02T10:04:53.244Z,4.20
2018-06-02T10:07:23.005Z,3.90
2018-06-02T10:09:54.496Z,4.17
2018-06-02T10:12:24.210Z,4.50
2018-06-02T10:14:53.977Z,4.50
2018-06-02T10:17:23.734Z,3.70
2018-06-02T10:19:53.464Z,4.10
2018-06-02T10:22:23.447Z,4.23
2018-06-02T10:24:53.197Z,3.80
2018-06-02T10:27:23.041Z,4.70
2018-06-02T10:29:53.565Z,3.83
2018-06-02T10:32:23.351Z,4.70
2018-06-02T10:34:53.414Z,3.63
2018-06-02T10:37:23.976Z,3.53
2018-06-02T10:39:54.269Z,3.90
2018-06-02T10:42:24.088Z,3.80
2018-06-02T10:44:54.888Z,4.00
2018-06-02T10:47:25.426Z,4.10
2018-06-02T10:49:55.930Z,4.10
2018-06-02T10:52:25.904Z,4.00
2018-06-02T10:54:56.437Z,4.00
2018-06-02T10:57:26.457Z,3.77
2018-06-02T10:59:56.176Z,4.30
2018-06-02T11:02:25.904Z,3.57
2018-06-02T11:04:55.639Z,4.00
2018-06-02T11:07:25.527Z,4.00
2018-06-02T11:09:55.606Z,3.93
2018-06-02T11:12:25.357Z,4.00
2018-06-02T11:14:55.097Z,3.90
2018-06-02T11:17:24.835Z,4.77
2018-06-02T11:19:54.585Z,4.13
2018-06-02T11:22:24.591Z,4.00
2018-06-02T11:24:54.341Z,4.33
2018-06-02T11:27:24.612Z,4.03
2018-06-02T11:29:54.356Z,3.87
2018-06-02T11:32:25.000Z,3.83
2018-06-02T11:34:54.736Z,3.73
2018-06-02T11:37:25.245Z,3.70
2018-06-02T11:39:56.413Z,4.30
2018-06-02T11:42:26.948Z,4.27
2018-06-02T11:44:56.889Z,4.47
2018-06-02T11:47:26.641Z,3.30
2018-06-02T11:49:57.168Z,3.93
2018-06-02T11:52:26.983Z,3.80
2018-06-02T11:54:57.505Z,4.03
2018-06-02T11:57:27.658Z,4.57
2018-06-02T11:59:58.424Z,4.50
2018-06-02T12:02:28.236Z,3.93
2018-06-02T12:04:58.080Z,4.70
2018-06-02T12:07:27.796Z,4.73
2018-06-02T12:09:57.511Z,3.77
2018-06-02T12:12:28.016Z,5.13
2018-06-02T12:14:58.305Z,5.37
2018-06-02T12:17:28.056Z,4.33
2018-06-02T12:19:57.802Z,3.93
2018-06-02T12:22:28.380Z,4.37
2018-06-02T12:24:58.120Z,4.70
2018-06-02T12:27:27.877Z,5.30
2018-06-02T12:29:57.609Z,5.20
2018-06-02T12:32:30.321Z,4.70
2018-06-02T12:35:00.850Z,3.80
2018-06-02T12:37:30.577Z,4.17
2018-06-02T12:40:00.343Z,4.23
2018-06-02T12:42:30.076Z,4.33
2018-06-02T12:45:00.269Z,4.37
2018-06-02T12:47:29.985Z,4.47
2018-06-02T12:49:59.727Z,4.23
2018-06-02T12:52:29.457Z,4.80
2018-06-02T12:54:59.955Z,4.50
2018-06-02T12:57:29.693Z,4.83
2018-06-02T13:00:00.208Z,4.30
2018-06-02T13:02:31.474Z,4.00
2018-06-02T13:05:02.056Z,4.23
2018-06-02T13:07:31.812Z,4.60
2018-06-02T13:10:02.417Z,4.10
2018-06-02T13:12:32.987Z,4.30
2018-06-02T13:15:03.012Z,4.93
2018-06-02T13:17:33.044Z,4.47
2018-06-02T13:20:03.262Z,4.03
2018-06-02T13:22:32.979Z,4.23
2018-06-02T13:25:02.761Z,3.80
2018-06-02T13:27:32.493Z,3.70
2018-06-02T13:30:03.003Z,4.10
2018-06-02T13:32:33.016Z,4.10
2018-06-02T13:35:03.505Z,3.60
2018-06-02T13:37:33.680Z,3.50
2018-06-02T13:40:03.464Z,4.00
2018-06-02T13:42:34.005Z,3.60
2018-06-02T13:45:03.774Z,4.00
2018-06-02T13:47:33.520Z,3.87
2018-06-02T13:50:04.493Z,3.87
2018-06-02T13:52:34.246Z,3.27
2018-06-02T13:55:03.984Z,3.83
2018-06-02T13:57:34.574Z,4.07
2018-06-02T14:00:04.364Z,4.17
2018-06-02T14:02:35.169Z,4.87
2018-06-02T14:05:05.772Z,3.70
2018-06-02T14:07:36.441Z,4.07
2018-06-02T14:10:06.169Z,4.23
2018-06-02T14:12:35.962Z,4.43
2018-06-02T14:15:05.721Z,3.57
2018-06-02T14:17:35.498Z,4.23
2018-06-02T14:20:05.799Z,4.00
2018-06-02T14:22:35.531Z,3.90
2018-06-02T14:25:05.321Z,3.77
2018-06-02T14:27:35.050Z,3.50
2018-06-02T14:30:04.769Z,3.67
2018-06-02T14:32:34.492Z,3.90
2018-06-02T14:35:04.258Z,3.87
2018-06-02T14:37:34.294Z,3.23
2018-06-02T14:40:04.040Z,3.77
2018-06-02T14:42:33.800Z,3.53
2018-06-02T14:45:03.567Z,3.30
2018-06-02T14:47:33.301Z,3.87
2018-06-02T14:50:04.961Z,3.83
2018-06-02T14:52:35.461Z,3.47
2018-06-02T14:55:05.694Z,3.10
2018-06-02T14:57:36.225Z,3.87
2018-06-02T15:00:06.745Z,3.33
2018-06-02T15:02:36.477Z,3.67
2018-06-02T15:05:07.004Z,3.80
2018-06-02T15:07:38.083Z,3.40
2018-06-02T15:10:07.828Z,3.13
2018-06-02T15:12:37.797Z,3.17
2018-06-02T15:15:07.509Z,3.63
2018-06-02T15:17:37.311Z,3.23
2018-06-02T15:20:07.064Z,3.60
2018-06-02T15:22:36.844Z,3.40
2018-06-02T15:25:06.861Z,3.50
2018-06-02T15:27:37.488Z,3.70
2018-06-02T15:30:08.130Z,4.30
2018-06-02T15:32:37.874Z,2.97
2018-06-02T15:35:07.573Z,3.47
2018-06-02T15:37:39.590Z,3.60
2018-06-02T15:40:09.350Z,3.43
2018-06-02T15:42:40.151Z,3.20
2018-06-02T15:45:09.876Z,3.03
2018-06-02T15:47:39.639Z,3.27
2018-06-02T15:50:10.192Z,4.03
2018-06-02T15:52:39.923Z,3.00
2018-06-02T15:55:10.418Z,3.10
2018-06-02T15:57:40.981Z,3.83
2018-06-02T16:00:11.072Z,3.30
2018-06-02T16:02:40.890Z,3.63
2018-06-02T16:05:10.608Z,3.50
2018-06-02T16:07:40.375Z,3.00
2018-06-02T16:10:10.865Z,2.77
2018-06-02T16:12:40.875Z,2.87
2018-06-02T16:15:10.629Z,3.00
2018-06-02T16:17:40.371Z,3.10
2018-06-02T16:20:10.149Z,3.10
2018-06-02T16:22:39.869Z,3.07
2018-06-02T16:25:10.934Z,3.13
2018-06-02T16:27:40.681Z,2.70
2018-06-02T16:30:11.061Z,3.17
2018-06-02T16:32:41.552Z,3.53
2018-06-02T16:35:11.301Z,2.97
2018-06-02T16:37:41.796Z,2.90
2018-06-02T16:40:12.502Z,3.90
2018-06-02T16:42:42.711Z,3.07
2018-06-02T16:45:12.548Z,2.73
2018-06-02T16:47:42.623Z,3.10
2018-06-02T16:50:12.361Z,3.03
2018-06-02T16:52:42.158Z,2.83
2018-06-02T16:55:11.933Z,3.30
2018-06-02T16:57:42.440Z,2.80
2018-06-02T17:00:12.730Z,2.87
2018-06-02T17:02:42.446Z,3.20
2018-06-02T17:05:12.168Z,3.20
2018-06-02T17:07:41.900Z,2.70
2018-06-02T17:10:11.660Z,3.07
2018-06-02T17:12:41.421Z,3.10
2018-06-02T17:15:11.156Z,3.20
2018-06-02T17:17:43.037Z,2.93
2018-06-02T17:20:12.823Z,2.70
2018-06-02T17:22:43.314Z,2.57
2018-06-02T17:25:13.051Z,3.20
2018-06-02T17:27:42.793Z,2.67
2018-06-02T17:30:13.640Z,3.50
2018-06-02T17:32:43.377Z,2.40
2018-06-02T17:35:13.653Z,3.20
2018-06-02T17:37:44.133Z,2.67
2018-06-02T17:40:13.871Z,2.97
2018-06-02T17:42:43.628Z,3.27
2018-06-02T17:45:13.349Z,2.83
2018-06-02T17:47:43.754Z,2.97
2018-06-02T17:50:13.526Z,2.97
2018-06-02T17:52:43.252Z,3.23
2018-06-02T17:55:13.759Z,2.50
2018-06-02T17:57:44.491Z,2.73
2018-06-02T18:00:14.233Z,3.13
2018-06-02T18:02:44.761Z,3.03
2018-06-02T18:05:16.268Z,2.77
2018-06-02T18:07:46.020Z,2.70
2018-06-02T18:10:16.500Z,3.60
2018-06-02T18:12:46.217Z,2.50
2018-06-02T18:15:15.967Z,2.70
2018-06-02T18:17:47.002Z,2.80
2018-06-02T18:20:17.502Z,2.50
2018-06-02T18:22:48.494Z,3.60
2018-06-02T18:25:18.235Z,2.90
2018-06-02T18:27:47.980Z,3.10
2018-06-02T18:30:18.505Z,2.77
2018-06-02T18:32:48.265Z,2.53
2018-06-02T18:35:18.177Z,2.70
2018-06-02T18:37:47.909Z,2.70
2018-06-02T18:40:17.671Z,2.40
2018-06-02T18:42:48.168Z,2.60
2018-06-02T18:45:17.922Z,2.23
2018-06-02T18:47:47.705Z,2.83
2018-06-02T18:50:18.229Z,2.60
2018-06-02T18:52:48.380Z,2.70
2018-06-02T18:55:18.099Z,2.80
2018-06-02T18:57:47.843Z,3.23
2018-06-02T19:00:17.601Z,2.57
2018-06-02T19:02:48.104Z,2.30
2018-06-02T19:05:19.119Z,3.00
2018-06-02T19:07:48.863Z,3.00
2018-06-02T19:10:19.801Z,2.73
2018-06-02T19:12:50.430Z,2.63
2018-06-02T19:15:20.219Z,2.53
2018-06-02T19:17:49.993Z,2.57
2018-06-02T19:20:19.729Z,2.90
2018-06-02T19:22:50.117Z,3.47
2018-06-02T19:25:20.607Z,2.40
2018-06-02T19:27:50.319Z,2.80
2018-06-02T19:30:20.042Z,2.90
2018-06-02T19:32:50.529Z,2.40
2018-06-02T19:35:20.350Z,2.53
2018-06-02T19:37:50.912Z,3.00
2018-06-02T19:40:21.886Z,2.57
2018-06-02T19:42:52.701Z,2.37
2018-06-02T19:45:23.273Z,2.53
2018-06-02T19:47:53.037Z,2.23
2018-06-02T19:50:23.579Z,2.90
2018-06-02T19:52:54.517Z,2.73
2018-06-02T19:55:24.232Z,2.60
2018-06-02T19:57:54.472Z,2.77
2018-06-02T20:00:24.244Z,2.87
2018-06-02T20:02:54.721Z,2.27
2018-06-02T20:05:24.439Z,2.67
2018-06-02T20:07:54.220Z,3.20
2018-06-02T20:10:24.634Z,2.40
2018-06-02T20:12:55.225Z,2.20
2018-06-02T20:15:24.950Z,2.37
2018-06-02T20:17:54.661Z,2.80
2018-06-02T20:20:24.435Z,2.33
2018-06-02T20:22:54.165Z,2.33
2018-06-02T20:25:23.917Z,2.60
2018-06-02T20:27:54.239Z,2.83
2018-06-02T20:30:23.973Z,2.50
2018-06-02T20:32:53.696Z,2.40
2018-06-02T20:35:23.460Z,2.67
2018-06-02T20:37:53.938Z,2.90
2018-06-02T20:40:24.227Z,2.63
2018-06-02T20:42:53.984Z,2.23
2018-06-02T20:45:24.284Z,2.83
2018-06-02T20:47:53.991Z,2.40
2018-06-02T20:50:23.723Z,2.40
2018-06-02T20:52:53.444Z,2.37
2018-06-02T20:55:23.169Z,2.40
2018-06-02T20:57:53.648Z,2.33
2018-06-02T21:00:23.403Z,2.80
2018-06-02T21:02:53.685Z,2.80
2018-06-02T21:05:23.530Z,2.47
2018-06-02T21:07:53.285Z,2.83
2018-06-02T21:10:23.057Z,2.63
2018-06-02T21:12:52.787Z,2.47
2018-06-02T21:15:23.975Z,2.33
2018-06-02T21:17:53.715Z,2.43
2018-06-02T21:20:23.522Z,2.77
2018-06-02T21:22:53.270Z,2.37
2018-06-02T21:25:23.059Z,2.60
2018-06-02T21:27:53.418Z,2.40
2018-06-02T21:30:23.153Z,3.37
2018-06-02T21:32:53.296Z,2.57
2018-06-02T21:35:23.032Z,2.90
2018-06-02T21:37:53.171Z,2.83
2018-06-02T21:40:23.697Z,2.27
2018-06-02T21:42:54.197Z,2.03
2018-06-02T21:45:25.097Z,2.60
2018-06-02T21:47:54.841Z,2.63
2018-06-02T21:50:25.134Z,2.47
2018-06-02T21:52:54.845Z,2.30
2018-06-02T21:55:24.587Z,3.23
2018-06-02T21:57:54.337Z,2.20
2018-06-02T22:00:24.290Z,2.50
2018-06-02T22:02:54.714Z,2.30
2018-06-02T22:05:24.497Z,2.37
2018-06-02T22:07:54.264Z,3.23
2018-06-02T22:10:24.010Z,2.57
2018-06-02T22:12:54.500Z,2.40
2018-06-02T22:15:24.282Z,2.93
2018-06-02T22:17:53.985Z,2.73
2018-06-02T22:20:24.406Z,2.67
2018-06-02T22:22:54.154Z,2.50
2018-06-02T22:25:23.873Z,2.43
2018-06-02T22:27:53.588Z,2.47
2018-06-02T22:30:23.984Z,2.60
2018-06-02T22:32:54.185Z,2.50
2018-06-02T22:35:23.916Z,2.33
2018-06-02T22:37:55.191Z,2.50
2018-06-02T22:40:25.726Z,2.53
2018-06-02T22:42:56.256Z,2.37
2018-06-02T22:45:26.077Z,2.23
2018-06-02T22:47:57.025Z,3.03
2018-06-02T22:50:28.028Z,2.90
2018-06-02T22:52:58.850Z,2.87
2018-06-02T22:55:28.891Z,2.60
2018-06-02T22:57:59.471Z,2.40
2018-06-02T23:00:29.677Z,2.63
2018-06-02T23:02:59.417Z,2.80
2018-06-02T23:05:29.180Z,3.00
2018-06-02T23:08:00.477Z,2.73
2018-06-02T23:10:30.238Z,2.70
2018-06-02T23:13:00.738Z,2.47
2018-06-02T23:15:30.468Z,2.83
2018-06-02T23:18:00.997Z,2.70
2018-06-02T23:20:32.832Z,2.50
2018-06-02T23:23:02.796Z,2.70
2018-06-02T23:25:32.939Z,2.90
2018-06-02T23:28:02.671Z,2.63
2018-06-02T23:30:32.467Z,2.63
2018-06-02T23:33:02.233Z,2.90
2018-06-02T23:35:32.765Z,2.60
2018-06-02T23:38:04.409Z,3.10
2018-06-02T23:40:35.909Z,3.07
2018-06-02T23:43:05.636Z,2.70
2018-06-02T23:45:36.268Z,2.83
2018-06-02T23:48:06.002Z,2.53
2018-06-02T23:50:35.772Z,3.00
2018-06-02T23:53:05.523Z,2.20
2018-06-02T23:55:35.595Z,3.50
2018-06-02T23:58:05.326Z,3.17
